Time;durP1;ratioP1;P1;durP2;ratioP2;P2;SDS_P1;SDS_P2;PMS_P1;PMS_P2;Temp;Humidity;BMP_temperature;BMP_pressure;BME280_temperature;BME280_humidity;BME280_pressure;Samples;Min_cycle;Max_cycle;Signal;HPM_P1;HPM_P2
2022/07/29 04:28:53;;;;;;;18.13;13.27;;;;;;;23.07;71.41;101303.28;5094694;27;20397;-92
2022/07/29 04:31:19;;;;;;;22.13;14.32;;;;;;;23.02;71.73;101305.53;5094189;28;20050;-93
2022/07/29 04:33:45;;;;;;;21.80;12.95;;;;;;;23.04;72.16;101313.31;5074694;28;20028;-90
2022/07/29 04:36:10;;;;;;;17.50;12.85;;;;;;;23.10;70.89;101307.47;5098989;28;20055;-95
2022/07/29 04:38:37;;;;;;;23.05;14.60;;;;;;;23.06;70.99;101301.63;5090233;28;20043;-88
2022/07/29 04:41:02;;;;;;;25.90;16.25;;;;;;;23.21;70.72;101314.44;5087609;28;20572;-89
2022/07/29 04:43:28;;;;;;;21.60;14.02;;;;;;;23.33;70.43;101323.84;5087437;28;20115;-93
2022/07/29 04:45:53;;;;;;;18.42;14.38;;;;;;;23.73;68.57;101335.06;5109523;28;20067;-93
2022/07/29 04:48:19;;;;;;;25.17;15.77;;;;;;;24.07;68.21;101339.81;5088665;28;20023;-89
2022/07/29 04:50:44;;;;;;;22.55;17.00;;;;;;;23.74;68.82;101323.50;5088802;28;20036;-90
2022/07/29 04:53:10;;;;;;;24.63;16.02;;;;;;;23.56;69.89;101330.47;5104951;28;20481;-88
2022/07/29 04:55:36;;;;;;;21.13;16.42;;;;;;;23.42;70.42;101328.28;5106537;28;20060;-85
2022/07/29 04:58:01;;;;;;;19.23;15.00;;;;;;;23.69;69.19;101351.31;5107966;28;20051;-86
2022/07/29 05:00:27;;;;;;;26.63;18.42;;;;;;;23.82;69.41;101353.69;5089375;28;20484;-85
2022/07/29 05:02:53;;;;;;;25.05;17.27;;;;;;;24.08;68.36;101348.56;5101683;28;20038;-89
2022/07/29 05:05:18;;;;;;;32.50;16.65;;;;;;;23.88;68.94;101347.81;5085973;28;20032;-93
2022/07/29 05:07:44;;;;;;;21.23;15.88;;;;;;;24.16;68.07;101351.31;5076362;28;20089;-91
2022/07/29 05:10:09;;;;;;;23.60;16.98;;;;;;;24.34;67.94;101351.41;5091743;28;20035;-94
2022/07/29 05:12:35;;;;;;;29.95;17.77;;;;;;;24.33;68.18;101357.69;5056137;28;20061;-91
2022/07/29 05:15:00;;;;;;;22.23;15.32;;;;;;;24.21;68.49;101357.03;5075014;28;20020;-84
2022/07/29 05:17:26;;;;;;;21.98;16.63;;;;;;;24.23;67.59;101353.25;5067248;28;20512;-86
2022/07/29 05:19:51;;;;;;;23.73;16.70;;;;;;;23.98;68.77;101345.97;5084411;28;20043;-85
2022/07/29 05:22:20;;;;;;;22.20;16.63;;;;;;;24.16;68.50;101365.38;5084535;28;20035;-89
2022/07/29 05:24:46;;;;;;;19.50;15.98;;;;;;;24.40;68.28;101351.66;5072578;28;20031;-88
2022/07/29 05:27:11;;;;;;;19.92;16.70;;;;;;;24.39;67.95;101360.59;5066785;28;20060;-88
2022/07/29 05:29:37;;;;;;;39.00;23.05;;;;;;;24.24;68.47;101357.56;5071027;28;20024;-91
2022/07/29 05:32:03;;;;;;;26.45;18.70;;;;;;;24.30;68.63;101367.56;5071812;28;20028;-89
2022/07/29 05:34:29;;;;;;;26.15;17.95;;;;;;;24.30;68.36;101358.78;5068748;28;20024;-92
2022/07/29 05:36:55;;;;;;;29.90;22.52;;;;;;;24.43;67.90;101358.47;5071265;28;20036;-92
2022/07/29 05:39:20;;;;;;;27.23;18.75;;;;;;;24.30;69.04;101362.25;5066429;28;20122;-93
2022/07/29 05:41:46;;;;;;;20.23;16.58;;;;;;;24.15;69.37;101363.72;5072198;28;20035;-88
2022/07/29 05:44:13;;;;;;;19.35;15.23;;;;;;;23.90;68.75;101359.09;5093075;28;20506;-86
2022/07/29 05:46:38;;;;;;;23.77;16.83;;;;;;;23.84;69.96;101364.94;5073810;28;20032;-85
2022/07/29 05:49:06;;;;;;;22.73;18.10;;;;;;;23.82;70.31;101359.78;5074413;28;20030;-85
2022/07/29 05:51:34;;;;;;;20.77;15.38;;;;;;;23.90;69.66;101361.72;5074311;28;20063;-87
2022/07/29 05:53:59;;;;;;;30.85;20.10;;;;;;;23.91;69.76;101360.75;5074528;28;20067;-90
2022/07/29 05:56:25;;;;;;;28.63;19.25;;;;;;;24.27;69.13;101367.81;5073941;28;20055;-93
2022/07/29 05:58:51;;;;;;;24.45;17.65;;;;;;;24.45;68.16;101356.50;5041452;28;20112;-88
2022/07/29 06:01:17;;;;;;;22.27;16.70;;;;;;;24.76;66.87;101338.50;5067623;28;20481;-85
2022/07/29 06:03:42;;;;;;;24.15;16.25;;;;;;;25.04;66.60;101356.00;5091609;28;20024;-87
2022/07/29 06:06:08;;;;;;;24.75;17.50;;;;;;;25.38;64.97;101358.81;5080309;28;20033;-91
2022/07/29 06:08:36;;;;;;;21.65;16.75;;;;;;;25.14;64.84;101351.47;5039955;28;20028;-89
2022/07/29 06:11:01;;;;;;;21.42;16.55;;;;;;;25.09;64.47;101363.50;5107838;28;20431;-90
2022/07/29 06:13:27;;;;;;;22.30;17.88;;;;;;;25.00;63.65;101345.84;5073865;28;20035;-87
2022/07/29 06:15:52;;;;;;;23.10;17.15;;;;;;;25.11;65.04;101361.53;5090602;28;20116;-90
2022/07/29 06:18:18;;;;;;;21.25;17.10;;;;;;;24.98;65.32;101355.75;5075415;28;20027;-87
2022/07/29 06:20:44;;;;;;;23.85;17.02;;;;;;;25.21;63.57;101346.41;5071872;28;20153;-88
2022/07/29 06:23:09;;;;;;;21.95;17.60;;;;;;;25.13;63.58;101349.81;5090243;28;20031;-86
2022/07/29 06:25:36;;;;;;;23.90;19.13;;;;;;;24.85;64.78;101349.00;5084042;28;20032;-92
2022/07/29 06:28:02;;;;;;;25.23;19.25;;;;;;;24.74;65.87;101357.16;5078910;28;20044;-89
2022/07/29 06:30:28;;;;;;;22.58;17.35;;;;;;;24.82;64.70;101351.13;5073898;28;20570;-87
2022/07/29 06:32:54;;;;;;;18.15;15.57;;;;;;;24.91;62.33;101337.00;5073832;28;20420;-95
2022/07/29 06:35:19;;;;;;;20.65;16.08;;;;;;;24.88;61.34;101348.72;5090609;28;20024;-90
2022/07/29 06:37:46;;;;;;;19.13;15.60;;;;;;;24.99;63.37;101358.25;5080113;28;20505;-95
2022/07/29 06:42:55;;;;;;;18.20;15.57;;;;;;;25.44;62.26;101358.16;5076331;28;20121;-90
2022/07/29 06:45:21;;;;;;;19.08;15.20;;;;;;;25.64;60.84;101357.97;5074646;28;20027;-91
2022/07/29 06:47:48;;;;;;;18.45;15.73;;;;;;;25.62;61.25;101341.41;5074350;28;20032;-86
2022/07/29 06:50:14;;;;;;;20.77;15.48;;;;;;;25.58;60.76;101363.91;5073005;28;20043;-88
2022/07/29 06:52:40;;;;;;;21.00;15.60;;;;;;;25.57;61.44;101347.19;5055227;28;20525;-92
2022/07/29 06:55:06;;;;;;;18.98;15.55;;;;;;;25.80;60.44;101357.28;5057478;28;20038;-85
2022/07/29 06:57:32;;;;;;;18.50;16.23;;;;;;;25.91;59.62;101367.63;5074875;28;20024;-88
2022/07/29 06:59:58;;;;;;;16.88;15.07;;;;;;;25.91;60.03;101360.50;5074905;28;20032;-91
2022/07/29 07:02:23;;;;;;;22.50;16.98;;;;;;;26.06;59.34;101370.53;5092956;28;20024;-90
2022/07/29 07:04:49;;;;;;;25.33;19.05;;;;;;;26.08;58.97;101347.34;5055334;28;20035;-86
2022/07/29 07:07:15;;;;;;;20.35;16.20;;;;;;;26.12;59.73;101352.16;5072884;28;20465;-85
2022/07/29 07:09:40;;;;;;;21.23;16.23;;;;;;;26.06;59.12;101346.69;5073849;28;20032;-88
2022/07/29 07:12:06;;;;;;;21.02;16.25;;;;;;;26.12;59.64;101373.38;5070101;28;20103;-87
2022/07/29 07:14:31;;;;;;;21.33;17.95;;;;;;;26.27;58.52;101366.50;5073539;28;20032;-91
2022/07/29 07:16:57;;;;;;;24.10;17.58;;;;;;;26.31;58.09;101361.69;5072313;28;20540;-85
2022/07/29 07:19:22;;;;;;;25.38;17.63;;;;;;;26.19;58.35;101365.63;5055711;28;20713;-91
2022/07/29 07:21:48;;;;;;;24.58;16.10;;;;;;;26.22;58.72;101354.69;5037190;28;20513;-85
2022/07/29 07:24:13;;;;;;;25.30;18.48;;;;;;;26.44;57.60;101379.84;5053520;28;20470;-90
2022/07/29 07:26:39;;;;;;;23.85;18.52;;;;;;;26.43;57.16;101364.91;5059772;28;20544;-91
2022/07/29 07:29:05;;;;;;;22.65;18.35;;;;;;;26.62;57.44;101377.91;5089760;28;20024;-93
2022/07/29 07:31:31;;;;;;;22.65;19.27;;;;;;;26.39;57.48;101360.94;5073349;28;20028;-90
2022/07/29 07:33:56;;;;;;;20.55;17.80;;;;;;;26.51;58.10;101368.44;5066010;28;20148;-89
2022/07/29 07:36:22;;;;;;;24.10;18.20;;;;;;;26.58;58.21;101358.84;5089139;28;20498;-93
2022/07/29 07:38:47;;;;;;;21.85;18.50;;;;;;;26.71;57.58;101353.06;5086189;28;20471;-92
2022/07/29 07:41:13;;;;;;;23.55;18.90;;;;;;;26.71;57.86;101345.09;5072019;28;20032;-87
2022/07/29 07:43:38;;;;;;;21.90;18.35;;;;;;;26.93;57.50;101359.56;5080955;28;20028;-94
2022/07/29 07:46:04;;;;;;;21.88;19.17;;;;;;;27.02;57.20;101348.00;5074439;28;20037;-88
2022/07/29 07:48:29;;;;;;;22.02;19.60;;;;;;;27.08;55.93;101350.00;5091835;28;20027;-89
2022/07/29 07:50:55;;;;;;;22.27;18.40;;;;;;;27.20;56.47;101360.28;5088537;28;20035;-91
2022/07/29 07:53:21;;;;;;;21.13;18.52;;;;;;;27.29;55.51;101362.78;5089382;28;20092;-87
2022/07/29 07:55:47;;;;;;;24.50;19.38;;;;;;;27.24;55.89;101340.38;5073850;28;20028;-92
2022/07/29 07:58:13;;;;;;;23.67;19.88;;;;;;;27.47;56.58;101359.94;5075784;28;20164;-92
2022/07/29 08:00:40;;;;;;;22.20;18.63;;;;;;;27.62;55.41;101363.56;5075182;28;20031;-94
2022/07/29 08:03:05;;;;;;;26.05;20.75;;;;;;;27.41;55.08;101365.91;5091535;28;20087;-90
2022/07/29 08:05:31;;;;;;;22.40;20.05;;;;;;;27.49;55.60;101363.25;5056654;28;20036;-89
2022/07/29 08:07:56;;;;;;;27.83;21.38;;;;;;;27.46;55.53;101363.59;5051609;28;20035;-89
2022/07/29 08:13:07;;;;;;;20.33;17.88;;;;;;;27.53;55.24;101346.00;5054604;28;20040;-85
2022/07/29 08:15:32;;;;;;;26.00;20.95;;;;;;;27.47;54.85;101346.66;5071596;28;20017;-93
2022/07/29 08:17:58;;;;;;;24.42;18.13;;;;;;;27.68;54.61;101357.63;5074670;28;20034;-95
2022/07/29 08:20:24;;;;;;;22.33;19.27;;;;;;;27.85;53.37;101352.28;5059094;28;20576;-90
2022/07/29 08:22:51;;;;;;;19.65;17.70;;;;;;;27.92;53.49;101348.75;5054805;28;20405;-91
2022/07/29 08:25:20;;;;;;;19.88;17.35;;;;;;;27.95;52.61;101336.97;5071622;28;20025;-89
2022/07/29 08:27:46;;;;;;;20.92;17.88;;;;;;;28.11;52.04;101352.84;5082988;28;20056;-93
2022/07/29 08:30:11;;;;;;;18.95;16.95;;;;;;;28.03;51.85;101347.56;5048228;28;20024;-85
2022/07/29 08:32:37;;;;;;;17.73;15.45;;;;;;;27.97;52.15;101335.78;5090046;28;20063;-87
2022/07/29 08:35:03;;;;;;;17.05;15.20;;;;;;;28.12;51.60;101335.91;5071609;28;20028;-90
2022/07/29 08:37:28;;;;;;;17.75;15.38;;;;;;;28.36;51.28;101350.13;5054014;28;20043;-87
2022/07/29 08:39:54;;;;;;;18.70;13.80;;;;;;;28.42;49.52;101344.13;5069669;28;20024;-87
2022/07/29 08:42:19;;;;;;;18.10;14.27;;;;;;;28.26;50.17;101313.88;5067999;28;20497;-87
2022/07/29 08:44:45;;;;;;;17.58;14.93;;;;;;;28.47;50.04;101344.41;5050641;28;20060;-84
2022/07/29 08:47:10;;;;;;;21.65;17.50;;;;;;;28.72;50.04;101335.28;5066898;28;20039;-85
2022/07/29 08:49:36;;;;;;;16.88;14.23;;;;;;;28.79;49.43;101330.88;5069185;28;20554;-84
2022/07/29 08:52:01;;;;;;;16.83;14.82;;;;;;;29.09;49.09;101336.34;5071624;28;20060;-87
2022/07/29 08:54:27;;;;;;;18.98;15.05;;;;;;;28.94;48.75;101308.88;5071112;28;20058;-90
2022/07/29 08:56:52;;;;;;;19.23;14.27;;;;;;;29.02;48.83;101330.13;5070411;28;20513;-84
2022/07/29 08:59:20;;;;;;;16.75;15.02;;;;;;;29.12;48.78;101328.03;5077542;28;20028;-84
2022/07/29 09:01:46;;;;;;;18.95;14.65;;;;;;;29.11;48.94;101329.88;5053283;28;20031;-87
2022/07/29 09:04:12;;;;;;;16.65;14.68;;;;;;;29.35;48.49;101328.81;5067214;28;20029;-84
2022/07/29 09:06:41;;;;;;;16.17;14.57;;;;;;;29.49;47.73;101321.88;5054351;28;20501;-89
2022/07/29 09:09:07;;;;;;;17.10;15.30;;;;;;;29.61;47.40;101322.28;5071200;28;20028;-85
2022/07/29 09:11:33;;;;;;;20.60;15.05;;;;;;;29.67;46.10;101310.84;5069321;28;20354;-85
2022/07/29 09:13:59;;;;;;;19.00;14.27;;;;;;;29.80;46.46;101329.72;5070855;28;20039;-91
2022/07/29 09:16:24;;;;;;;16.70;13.85;;;;;;;29.85;47.11;101315.81;5055408;28;20032;-86
2022/07/29 09:18:50;;;;;;;17.17;14.00;;;;;;;29.99;46.22;101323.84;5069173;28;20105;-88
2022/07/29 09:24:11;;;;;;;18.52;14.38;;;;;;;30.17;46.00;101319.97;5075899;28;20416;-85
2022/07/29 09:26:41;;;;;;;16.00;14.30;;;;;;;30.39;45.86;101316.34;5071492;28;20449;-88
2022/07/29 09:29:17;;;;;;;18.27;15.15;;;;;;;30.46;44.71;101319.06;5071523;28;20572;-84
2022/07/29 09:31:44;;;;;;;16.05;14.10;;;;;;;30.46;45.27;101322.56;5090077;28;20028;-82
2022/07/29 09:34:10;;;;;;;17.50;14.70;;;;;;;30.33;44.95;101313.59;5063664;28;20081;-88
2022/07/29 09:36:45;;;;;;;16.20;14.27;;;;;;;30.26;45.83;101295.66;5070973;28;20024;-87
2022/07/29 09:39:11;;;;;;;15.45;13.82;;;;;;;30.22;44.98;101301.56;5072305;28;20113;-85
2022/07/29 09:41:52;;;;;;;15.85;14.18;;;;;;;30.34;44.81;101308.06;5072095;28;20496;-88
2022/07/29 09:44:18;;;;;;;15.13;13.57;;;;;;;30.02;45.26;101293.28;5038645;28;20036;-89
2022/07/29 09:47:06;;;;;;;17.10;13.82;;;;;;;29.83;45.92;101281.34;5061125;28;20625;-84
2022/07/29 09:49:33;;;;;;;33.80;22.60;;;;;;;29.89;46.15;101296.63;5089599;28;20020;-89
2022/07/29 09:52:09;;;;;;;16.42;14.50;;;;;;;29.73;46.54;101280.81;5058029;28;20054;-87
2022/07/29 09:54:37;;;;;;;17.98;14.35;;;;;;;29.91;45.89;101291.91;5042539;28;20036;-87
2022/07/29 09:57:09;;;;;;;15.48;13.85;;;;;;;30.11;45.44;101289.53;5089930;28;20055;-86
2022/07/29 09:59:35;;;;;;;14.65;13.13;;;;;;;30.30;45.23;101277.44;5083809;28;20052;-85
2022/07/29 10:02:00;;;;;;;16.77;14.45;;;;;;;30.47;44.35;101276.16;5069577;28;20128;-83
2022/07/29 10:04:39;;;;;;;15.45;13.85;;;;;;;30.56;43.51;101269.69;5052984;28;20040;-85
2022/07/29 10:07:05;;;;;;;15.00;13.50;;;;;;;30.68;44.03;101262.03;5055427;28;20024;-87
2022/07/29 10:09:31;;;;;;;14.77;13.27;;;;;;;30.90;43.53;101249.50;5054390;28;20025;-87
2022/07/29 10:12:13;;;;;;;19.27;13.10;;;;;;;31.08;43.09;101249.84;5054413;28;20024;-86
2022/07/29 10:14:39;;;;;;;15.43;13.68;;;;;;;31.36;42.32;101257.03;5067025;28;20032;-80
2022/07/29 10:17:05;;;;;;;15.25;13.63;;;;;;;31.28;41.74;101249.19;5088345;28;20123;-82
2022/07/29 10:19:31;;;;;;;15.77;13.18;;;;;;;31.52;41.72;101243.34;5090259;28;20111;-84
2022/07/29 10:21:57;;;;;;;16.98;12.98;;;;;;;31.39;41.52;101251.31;5090725;28;20174;-84
2022/07/29 10:24:25;;;;;;;14.25;12.77;;;;;;;31.48;41.14;101250.13;5073157;28;20082;-85
2022/07/29 10:26:52;;;;;;;14.75;12.93;;;;;;;31.75;41.36;101243.06;5053203;28;20057;-84
2022/07/29 10:29:18;;;;;;;15.13;12.90;;;;;;;31.84;41.00;101254.44;5053438;28;20516;-82
2022/07/29 10:31:51;;;;;;;16.13;12.57;;;;;;;31.54;40.05;101240.47;5070176;28;20033;-84
2022/07/29 10:34:23;;;;;;;14.60;12.82;;;;;;;31.85;41.24;101253.41;5080617;28;20026;-88
2022/07/29 10:36:56;;;;;;;15.20;12.77;;;;;;;31.92;39.53;101247.06;5079168;28;20031;-87
2022/07/29 10:39:40;;;;;;;18.40;13.05;;;;;;;31.87;39.49;101246.03;5078112;28;20094;-86
2022/07/29 10:42:15;;;;;;;15.60;12.80;;;;;;;32.05;39.72;101235.56;5069659;28;20020;-88
2022/07/29 10:44:40;;;;;;;14.52;13.02;;;;;;;32.00;39.07;101227.31;5070327;28;20039;-86
2022/07/29 10:47:06;;;;;;;19.50;17.38;;;;;;;32.06;40.24;101234.56;5084000;28;20498;-89
2022/07/29 10:49:32;;;;;;;15.93;13.35;;;;;;;32.20;39.26;101222.84;5062758;28;20110;-83
2022/07/29 10:51:57;;;;;;;14.38;12.90;;;;;;;32.09;38.89;101230.66;5073268;28;20031;-88
2022/07/29 10:54:51;;;;;;;15.02;13.43;;;;;;;31.98;40.01;101229.38;5089883;28;20514;-84
2022/07/29 10:57:29;;;;;;;14.10;12.75;;;;;;;32.20;39.19;101228.22;5085857;28;20067;-83
2022/07/29 11:00:14;;;;;;;15.82;13.02;;;;;;;32.09;38.76;101228.78;5090723;28;20024;-85
2022/07/29 11:02:39;;;;;;;13.80;12.40;;;;;;;32.46;39.38;101218.59;5086966;28;20032;-89
2022/07/29 11:05:08;;;;;;;16.08;13.02;;;;;;;32.75;38.89;101206.66;5070994;28;20032;-83
2022/07/29 11:07:35;;;;;;;16.92;12.68;;;;;;;32.73;37.88;101201.50;5069893;28;20552;-84
2022/07/29 11:10:13;;;;;;;15.02;13.45;;;;;;;32.79;39.06;101183.78;5036885;28;20509;-84
2022/07/29 11:12:38;;;;;;;14.23;12.73;;;;;;;33.19;37.27;101200.66;5070787;28;20047;-85
2022/07/29 11:15:05;;;;;;;14.75;12.55;;;;;;;33.29;36.09;101193.00;5070542;28;20482;-85
2022/07/29 11:17:53;;;;;;;14.25;12.85;;;;;;;32.99;36.97;101199.88;5053389;28;20025;-84
2022/07/29 11:20:41;;;;;;;17.85;14.95;;;;;;;33.25;36.70;101199.00;5070427;28;20032;-86
2022/07/29 11:23:35;;;;;;;14.05;12.60;;;;;;;33.45;35.78;101198.97;5053313;28;20016;-82
2022/07/29 11:26:21;;;;;;;13.68;12.30;;;;;;;33.78;35.20;101185.41;5068571;28;20113;-82
2022/07/29 11:28:55;;;;;;;16.48;14.73;;;;;;;33.65;35.84;101192.47;5058255;28;20048;-90
2022/07/29 11:31:37;;;;;;;15.30;13.18;;;;;;;33.67;36.36;101174.31;5070626;28;20081;-82
2022/07/29 11:34:21;;;;;;;15.70;12.73;;;;;;;33.70;36.55;101191.81;5075338;28;20020;-89
2022/07/29 11:37:14;;;;;;;49.63;44.80;;;;;;;33.21;36.34;101187.03;5088642;28;20028;-86
2022/07/29 11:42:32;;;;;;;14.80;13.30;;;;;;;33.25;37.02;101178.38;5667479;22;20061;-84
2022/07/29 11:45:07;;;;;;;22.15;14.15;;;;;;;33.25;37.48;101182.91;5082268;22;20056;-86
2022/07/29 11:47:37;;;;;;;15.05;13.27;;;;;;;33.44;37.19;101178.53;5066538;28;20508;-86
2022/07/29 11:50:04;;;;;;;15.77;13.13;;;;;;;33.70;36.48;101175.72;5052569;28;20098;-87
2022/07/29 11:52:45;;;;;;;14.15;12.65;;;;;;;33.48;35.98;101159.13;5052207;28;20047;-90
2022/07/29 11:55:15;;;;;;;14.82;12.60;;;;;;;33.69;36.77;101163.34;5083434;28;20020;-86
2022/07/29 11:57:52;;;;;;;14.57;12.95;;;;;;;33.83;36.74;101154.22;5088255;28;20054;-86
2022/07/29 12:00:35;;;;;;;18.25;13.45;;;;;;;34.07;35.97;101165.22;5053271;28;20111;-85
2022/07/29 12:03:02;;;;;;;15.63;12.32;;;;;;;34.28;35.07;101151.44;5054192;28;20027;-87
2022/07/29 12:05:38;;;;;;;16.30;12.82;;;;;;;34.48;34.35;101160.19;5072609;28;20506;-86
2022/07/29 12:08:10;;;;;;;16.40;13.57;;;;;;;34.00;34.65;101151.03;5089752;28;20028;-88
2022/07/29 12:10:36;;;;;;;14.00;12.40;;;;;;;34.25;34.72;101138.47;5072779;28;20171;-83
2022/07/29 12:13:02;;;;;;;15.23;12.30;;;;;;;34.33;33.91;101138.19;5072262;28;20150;-83
2022/07/29 12:15:27;;;;;;;13.25;11.95;;;;;;;33.99;33.61;101125.22;5089187;28;20063;-90
2022/07/29 12:17:53;;;;;;;14.15;12.10;;;;;;;33.96;35.45;101139.91;5055781;28;20059;-85
2022/07/29 12:20:26;;;;;;;14.13;11.88;;;;;;;34.13;34.40;101124.09;5072159;28;20406;-83
2022/07/29 12:22:53;;;;;;;23.20;20.73;;;;;;;33.97;34.33;101130.00;5087504;28;20112;-86
2022/07/29 12:25:19;;;;;;;14.82;12.27;;;;;;;33.63;35.07;101127.50;5075967;28;20078;-82
2022/07/29 12:27:44;;;;;;;15.82;12.77;;;;;;;33.93;34.90;101122.38;5069109;28;20028;-81
2022/07/29 12:30:17;;;;;;;14.15;12.40;;;;;;;33.96;35.01;101126.50;5069918;28;20028;-84
2022/07/29 12:32:45;;;;;;;13.80;12.50;;;;;;;33.85;35.36;101122.59;5063140;28;20032;-85
2022/07/29 12:35:13;;;;;;;15.32;12.68;;;;;;;33.93;34.77;101108.16;5072430;28;20032;-82
2022/07/29 12:37:39;;;;;;;15.95;12.07;;;;;;;34.06;34.61;101110.72;5089615;28;20075;-85
2022/07/29 12:40:05;;;;;;;13.23;11.55;;;;;;;33.91;35.09;101113.69;5071743;28;20457;-81
2022/07/29 13:49:50;;;;;;;16.30;12.73;;;;;;;32.35;37.52;101050.50;5092601;27;1415424;-88
2022/07/29 13:52:15;;;;;;;15.82;12.45;;;;;;;32.19;37.63;101033.84;5101664;28;20032;-89
